Pagrindinis puslapis
METAR-TAF:

METAR-TAF

Oro uostai :

Sankt Galenas, Šveicarija

platuma: 47-29-06N, ilguma: 009-33-43E, Aukštis: 398 m

Dabartinis oras

Ataskaita buvo paskelbta 25 minutes, ne 23:50 UTC
Vėjas 2 kt nuo kintamojo kryptimis
Temperatūra 3°C
Drėgmė 93%
Slėgis 1017 hPa
Matomumas: 9000 m

METAR: LSZR 282350Z AUTO VRB02KT 9000 NCD 03/02 Q1017

Laikas: 01:15 (00:15 UTC)

Prognozė

Ataskaita buvo paskelbta 9 valandos ir 50 minutes, ne 14:25 UTC
Prognozė galioja nuo 28 metu 15 UTC su 28 metu 24 UTC
Vėjas 3 kt nuo kintamojo kryptimis
Matomumas 10 km arba daugiau
nėra debesų žemiau 1500 m ir nėra kamuolinių lietaus debesų
Tikimybė 40% :
Laikinai
nuo 28 metu 15 UTC su 28 metu 24 UTC
Matomumas 10 km arba daugiau
Išsisklaidę debesys ne aukštis 5500 ft

TAF: LSZR 281425Z 2815/2824 VRB03KT CAVOK PROB40 TEMPO 2815/2824 9999 SCT055

Orai ataskaitas ir orų prognozės (METAR, TAF).

turimą stotys yra geltonos ir raudonos taškus žemėlapyje.

Perkelti pele per norėdami pamatyti stoties vardą.

Tada spustelėkite, norėdami matyti oro stebėjimo ir prognozės.

Norėdami pakeisti žemėlapį: spustelėkite ant žalios mygtukų su juodo kryžiaus žemyn,; žalią mygtuką su brūkšneliu, jei norite nutolinti; arba žalių rodyklių gretimoms žemėlapius.


METAR-TAF: